Washington Express — WDD3826 — position and weather

sailwx.info

Track history (hours):
 
Tides and Currents Weather Stations Pressure Air Temp Water Temp Dewpoint Dewpoint Depression Visibility Wind Speed Wind Dir Waves Ship Positions

Washington Express

Owner: Marine Transport Management - Nick Orfanidis, Jacksonville, FL. More information available from US FCC via Universal Licensing System.

Last reported at 2018-Jun-20 03:13 UTC. Time now 2018-Jun-20 11:18 UTC.
Position N 29°05' W 094°36'.

Type: Ship (hazmat cat A). MMSI: 367136710.

Date/timePositionNaut miles runAvg speedWind from/ knotsBaromVisibWave heightAir tempDewpointWater temp
2018-Jun-20 03:13N 29°05' W 094°36'0 0.1
2018-Jun-20 02:52N 29°05' W 094°36'0 0.0
2018-Jun-20 02:28N 29°05' W 094°36'0 0.1
2018-Jun-20 01:58N 29°05' W 094°36'0 0.1
2018-Jun-20 01:16N 29°05' W 094°36'0 0.1
2018-Jun-20 00:58N 29°05' W 094°36'0 0.0
2018-Jun-20 00:30N 29°05' W 094°36'0 0.0
2018-Jun-20 00:00N 29°05' W 094°36'0 0.1
2018-Jun-19 23:30N 29°05' W 094°36'1 2.3
2018-Jun-19 23:00N 29°05' W 094°37'4 7.7
2018-Jun-19 22:30N 29°04' W 094°33'5 9.7
2018-Jun-19 22:00N 29°06' W 094°28'4 5.8
2018-Jun-19 21:23N 29°04' W 094°25'4 9.9
2018-Jun-19 21:00N 29°00' W 094°24'4 8.1
2018-Jun-19 20:30N 28°57' W 094°23'5 9.7
2018-Jun-19 19:56N 28°55' W 094°17'20 9.3
2018-Jun-19 17:44N 28°50' W 093°54'  
2018-Jun-17 03:20N 25°17' W 080°05'617.2
2018-Jun-17 03:00N 25°22' W 080°02'816.7
2018-Jun-17 02:30N 25°30' W 080°00'815.9
2018-Jun-17 02:00N 25°38' W 079°58'815.3
2018-Jun-17 01:30N 25°45' W 079°58'815.2
2018-Jun-17 01:00N 25°53' W 079°60'715.0
2018-Jun-17 00:30N 26°00' W 080°01'510.4
2018-Jun-17 00:00N 26°05' W 080°04'3 5.6
2018-Jun-16 23:30N 26°05' W 080°07'1 1.0
2018-Jun-16 22:57N 26°04' W 080°07'0 0.0
2018-Jun-16 22:27N 26°04' W 080°07'0 0.0
2018-Jun-16 21:57N 26°04' W 080°07'0 0.0
2018-Jun-16 21:27N 26°04' W 080°07'0 0.0
2018-Jun-16 20:57N 26°04' W 080°07'0 0.0
2018-Jun-16 20:24N 26°04' W 080°07'0 0.0
2018-Jun-16 20:00N 26°04' W 080°07'0 0.0
2018-Jun-16 19:30N 26°04' W 080°07'0 0.0
2018-Jun-16 18:57N 26°04' W 080°07'0 0.0
2018-Jun-16 18:30N 26°04' W 080°07'0 0.0
2018-Jun-16 18:00N 26°04' W 080°07'0 0.0
2018-Jun-16 17:30N 26°04' W 080°07'0 0.0
2018-Jun-16 17:00N 26°04' W 080°07'0 0.0
2018-Jun-16 16:30N 26°04' W 080°07'0 0.0
2018-Jun-16 16:00N 26°04' W 080°07'0 0.0
2018-Jun-16 15:30N 26°04' W 080°07'0 0.0
2018-Jun-16 15:00N 26°04' W 080°07'0 0.0
2018-Jun-16 14:21N 26°04' W 080°07'0 0.0
2018-Jun-16 14:00N 26°04' W 080°07'0 0.0
2018-Jun-16 13:30N 26°04' W 080°07'0 0.0
2018-Jun-16 12:51N 26°04' W 080°07'0 0.0
2018-Jun-16 12:21N 26°04' W 080°07'0 0.0
2018-Jun-16 11:48N 26°04' W 080°07'0 0.0
2018-Jun-16 11:24N 26°04' W 080°07'0 1.2
2018-Jun-16 11:00N 26°05' W 080°07'3 5.3
2018-Jun-16 10:30N 26°06' W 080°04'3 6.9
2018-Jun-16 10:00N 26°08' W 080°01'1 1.1
2018-Jun-16 09:30N 26°08' W 080°01'0 0.3
2018-Jun-16 09:00N 26°08' W 080°01'2 4.7
2018-Jun-16 08:30N 26°11' W 080°01'4 8.7
2018-Jun-16 08:00N 26°15' W 080°00'5 8.8
2018-Jun-16 07:29N 26°20' W 079°59'5 9.7
2018-Jun-16 07:00N 26°24' W 079°58'5 9.3
2018-Jun-16 06:30N 26°29' W 079°57'5 8.9
2018-Jun-16 05:58N 26°33' W 079°56'4 8.9
2018-Jun-16 05:30N 26°38' W 079°55'5 9.0
2018-Jun-16 04:59N 26°42' W 079°54'4 9.1
2018-Jun-16 04:30N 26°46' W 079°55'4 8.9
2018-Jun-16 04:00N 26°51' W 079°56'510.5
2018-Jun-16 03:30N 26°56' W 079°57'611.5
2018-Jun-16 03:00N 27°02' W 079°59'611.4
2018-Jun-16 02:27N 27°08' W 079°58'511.4
2018-Jun-16 02:00N 27°13' W 079°58'33116.3
2018-Jun-15 05:41N 32°44' W 079°50'315.8
2018-Jun-15 05:30N 32°46' W 079°53'5 9.6
2018-Jun-15 05:00N 32°50' W 079°56'4 8.2
2018-Jun-15 04:30N 32°54' W 079°58'0 0.3
2018-Jun-15 03:03N 32°54' W 079°57'0 0.0
2018-Jun-15 03:00N 32°54' W 079°57'0 0.0
2018-Jun-15 01:42N 32°54' W 079°57'0 0.0
2018-Jun-15 00:09N 32°54' W 079°57'0 0.0
2018-Jun-14 23:51N 32°54' W 079°57'0 0.0
2018-Jun-14 23:27N 32°54' W 079°57'0 0.0
2018-Jun-14 22:39N 32°54' W 079°57'0 0.0
2018-Jun-14 22:30N 32°54' W 079°57'0 0.0
2018-Jun-14 22:00N 32°54' W 079°57'0 0.0
2018-Jun-14 19:51N 32°54' W 079°57'0 0.0
2018-Jun-14 18:33N 32°54' W 079°57'0 0.1
2018-Jun-14 18:30N 32°54' W 079°57'0 0.0
2018-Jun-14 17:24N 32°54' W 079°57'0 0.0
2018-Jun-14 14:21N 32°54' W 079°57'0 0.0
2018-Jun-14 07:15N 32°54' W 079°57'0 0.0
2018-Jun-14 06:09N 32°54' W 079°57'0 0.0
2018-Jun-14 05:57N 32°54' W 079°57'0 0.0
2018-Jun-14 02:42N 32°54' W 079°57'1 2.5
2018-Jun-14 02:21N 32°54' W 079°58'3 7.6
2018-Jun-14 01:59N 32°51' W 079°56'4 8.5
2018-Jun-14 01:30N 32°47' W 079°55'  
Track history (hours):
 
Tides and Currents Weather Stations Pressure Air Temp Water Temp Dewpoint Dewpoint Depression Visibility Wind Speed Wind Dir Waves Ship Positions

Washington Express

Owner: Marine Transport Management - Nick Orfanidis, Jacksonville, FL. More information available from US FCC via Universal Licensing System.

Last reported at 2018-Jun-20 03:13 UTC. Time now 2018-Jun-20 11:18 UTC.
Position N 29°05' W 094°36'.

Type: Ship (hazmat cat A). MMSI: 367136710.

Date/timePositionNaut miles runAvg speedWind from/ knotsBaromVisibWave heightAir tempDewpointWater temp
2018-Jun-20 03:13N 29°05' W 094°36'0 0.1
2018-Jun-20 02:52N 29°05' W 094°36'0 0.0
2018-Jun-20 02:28N 29°05' W 094°36'0 0.1
2018-Jun-20 01:58N 29°05' W 094°36'0 0.1
2018-Jun-20 01:16N 29°05' W 094°36'0 0.1
2018-Jun-20 00:58N 29°05' W 094°36'0 0.0
2018-Jun-20 00:30N 29°05' W 094°36'0 0.0
2018-Jun-20 00:00N 29°05' W 094°36'0 0.1
2018-Jun-19 23:30N 29°05' W 094°36'1 2.3
2018-Jun-19 23:00N 29°05' W 094°37'4 7.7
2018-Jun-19 22:30N 29°04' W 094°33'5 9.7
2018-Jun-19 22:00N 29°06' W 094°28'4 5.8
2018-Jun-19 21:23N 29°04' W 094°25'4 9.9
2018-Jun-19 21:00N 29°00' W 094°24'4 8.1
2018-Jun-19 20:30N 28°57' W 094°23'5 9.7
2018-Jun-19 19:56N 28°55' W 094°17'20 9.3
2018-Jun-19 17:44N 28°50' W 093°54'  
2018-Jun-17 03:20N 25°17' W 080°05'617.2
2018-Jun-17 03:00N 25°22' W 080°02'816.7
2018-Jun-17 02:30N 25°30' W 080°00'815.9
2018-Jun-17 02:00N 25°38' W 079°58'815.3
2018-Jun-17 01:30N 25°45' W 079°58'815.2
2018-Jun-17 01:00N 25°53' W 079°60'715.0
2018-Jun-17 00:30N 26°00' W 080°01'510.4
2018-Jun-17 00:00N 26°05' W 080°04'3 5.6
2018-Jun-16 23:30N 26°05' W 080°07'1 1.0
2018-Jun-16 22:57N 26°04' W 080°07'0 0.0
2018-Jun-16 22:27N 26°04' W 080°07'0 0.0
2018-Jun-16 21:57N 26°04' W 080°07'0 0.0
2018-Jun-16 21:27N 26°04' W 080°07'0 0.0
2018-Jun-16 20:57N 26°04' W 080°07'0 0.0
2018-Jun-16 20:24N 26°04' W 080°07'0 0.0
2018-Jun-16 20:00N 26°04' W 080°07'0 0.0
2018-Jun-16 19:30N 26°04' W 080°07'0 0.0
2018-Jun-16 18:57N 26°04' W 080°07'0 0.0
2018-Jun-16 18:30N 26°04' W 080°07'0 0.0
2018-Jun-16 18:00N 26°04' W 080°07'0 0.0
2018-Jun-16 17:30N 26°04' W 080°07'0 0.0
2018-Jun-16 17:00N 26°04' W 080°07'0 0.0
2018-Jun-16 16:30N 26°04' W 080°07'0 0.0
2018-Jun-16 16:00N 26°04' W 080°07'0 0.0
2018-Jun-16 15:30N 26°04' W 080°07'0 0.0
2018-Jun-16 15:00N 26°04' W 080°07'0 0.0
2018-Jun-16 14:21N 26°04' W 080°07'0 0.0
2018-Jun-16 14:00N 26°04' W 080°07'0 0.0
2018-Jun-16 13:30N 26°04' W 080°07'0 0.0
2018-Jun-16 12:51N 26°04' W 080°07'0 0.0
2018-Jun-16 12:21N 26°04' W 080°07'0 0.0
2018-Jun-16 11:48N 26°04' W 080°07'0 0.0
2018-Jun-16 11:24N 26°04' W 080°07'0 1.2
2018-Jun-16 11:00N 26°05' W 080°07'3 5.3
2018-Jun-16 10:30N 26°06' W 080°04'3 6.9
2018-Jun-16 10:00N 26°08' W 080°01'1 1.1
2018-Jun-16 09:30N 26°08' W 080°01'0 0.3
2018-Jun-16 09:00N 26°08' W 080°01'2 4.7
2018-Jun-16 08:30N 26°11' W 080°01'4 8.7
2018-Jun-16 08:00N 26°15' W 080°00'5 8.8
2018-Jun-16 07:29N 26°20' W 079°59'5 9.7
2018-Jun-16 07:00N 26°24' W 079°58'5 9.3
2018-Jun-16 06:30N 26°29' W 079°57'5 8.9
2018-Jun-16 05:58N 26°33' W 079°56'4 8.9
2018-Jun-16 05:30N 26°38' W 079°55'5 9.0
2018-Jun-16 04:59N 26°42' W 079°54'4 9.1
2018-Jun-16 04:30N 26°46' W 079°55'4 8.9
2018-Jun-16 04:00N 26°51' W 079°56'510.5
2018-Jun-16 03:30N 26°56' W 079°57'611.5
2018-Jun-16 03:00N 27°02' W 079°59'611.4
2018-Jun-16 02:27N 27°08' W 079°58'511.4
2018-Jun-16 02:00N 27°13' W 079°58'33116.3
2018-Jun-15 05:41N 32°44' W 079°50'315.8
2018-Jun-15 05:30N 32°46' W 079°53'5 9.6
2018-Jun-15 05:00N 32°50' W 079°56'4 8.2
2018-Jun-15 04:30N 32°54' W 079°58'0 0.3
2018-Jun-15 03:03N 32°54' W 079°57'0 0.0
2018-Jun-15 03:00N 32°54' W 079°57'0 0.0
2018-Jun-15 01:42N 32°54' W 079°57'0 0.0
2018-Jun-15 00:09N 32°54' W 079°57'0 0.0
2018-Jun-14 23:51N 32°54' W 079°57'0 0.0
2018-Jun-14 23:27N 32°54' W 079°57'0 0.0
2018-Jun-14 22:39N 32°54' W 079°57'0 0.0
2018-Jun-14 22:30N 32°54' W 079°57'0 0.0
2018-Jun-14 22:00N 32°54' W 079°57'0 0.0
2018-Jun-14 19:51N 32°54' W 079°57'0 0.0
2018-Jun-14 18:33N 32°54' W 079°57'0 0.1
2018-Jun-14 18:30N 32°54' W 079°57'0 0.0
2018-Jun-14 17:24N 32°54' W 079°57'0 0.0
2018-Jun-14 14:21N 32°54' W 079°57'0 0.0
2018-Jun-14 07:15N 32°54' W 079°57'0 0.0
2018-Jun-14 06:09N 32°54' W 079°57'0 0.0
2018-Jun-14 05:57N 32°54' W 079°57'0 0.0
2018-Jun-14 02:42N 32°54' W 079°57'1 2.5
2018-Jun-14 02:21N 32°54' W 079°58'3 7.6
2018-Jun-14 01:59N 32°51' W 079°56'4 8.5
2018-Jun-14 01:30N 32°47' W 079°55'  

Dump ship's entire track history